Time;durP1;ratioP1;P1;durP2;ratioP2;P2;SDS_P1;SDS_P2;PMS_P1;PMS_P2;Temp;Humidity;BMP_temperature;BMP_pressure;BME280_temperature;BME280_humidity;BME280_pressure;Samples;Min_cycle;Max_cycle;Signal;HPM_P1;HPM_P2
2022/06/26 00:02:15;;;;;;;;;;;;;;;23.90;53.13;99615.53;4431736;32;19997;-86
2022/06/26 00:04:44;;;;;;;;;;;;;;;23.97;52.66;99606.41;4423282;32;20030;-86
2022/06/26 00:07:11;;;;;;;;;;;;;;;23.93;52.57;99615.41;4421473;32;19973;-86
2022/06/26 00:09:37;;;;;;;;;;;;;;;23.98;52.40;99621.34;4416375;32;20775;-86
2022/06/26 00:12:04;;;;;;;;;;;;;;;23.98;52.53;99624.00;4416292;32;19966;-86
2022/06/26 00:14:31;;;;;;;;;;;;;;;23.77;52.96;99619.59;4424792;32;19985;-86
2022/06/26 00:16:58;;;;;;;;;;;;;;;23.64;53.46;99625.38;4415451;32;20005;-86
2022/06/26 00:19:25;;;;;;;;;;;;;;;23.87;52.90;99628.88;4415741;32;20081;-86
2022/06/26 00:21:52;;;;;;;;;;;;;;;23.83;53.03;99630.78;4425399;32;19986;-85
2022/06/26 00:24:19;;;;;;;;;;;;;;;23.90;52.66;99631.41;4415890;32;20033;-85
2022/06/26 00:26:46;;;;;;;;;;;;;;;23.87;52.85;99642.09;4418004;32;19989;-86
2022/06/26 00:29:12;;;;;;;;;;;;;;;23.87;52.84;99640.31;4416258;32;20049;-86
2022/06/26 00:31:41;;;;;;;;;;;;;;;23.71;53.44;99636.59;4423748;32;19988;-85
2022/06/26 00:34:08;;;;;;;;;;;;;;;23.81;53.13;99643.22;4435914;32;19996;-86
2022/06/26 00:36:35;;;;;;;;;;;;;;;23.78;53.35;99642.47;4431575;32;19978;-84
2022/06/26 00:39:01;;;;;;;;;;;;;;;23.85;53.10;99654.53;4439756;32;19981;-84
2022/06/26 00:41:28;;;;;;;;;;;;;;;23.86;53.06;99645.66;4431426;32;19986;-83
2022/06/26 00:43:55;;;;;;;;;;;;;;;23.71;53.52;99641.00;4431327;32;20092;-84
2022/06/26 00:46:25;;;;;;;;;;;;;;;23.64;53.96;99643.87;4432324;32;20078;-84
2022/06/26 00:48:52;;;;;;;;;;;;;;;23.67;53.66;99641.13;4438958;32;19982;-85
2022/06/26 00:51:19;;;;;;;;;;;;;;;23.74;53.00;99641.75;4433548;32;20004;-85
2022/06/26 00:53:46;;;;;;;;;;;;;;;23.53;53.63;99648.72;4436649;32;19978;-84
2022/06/26 00:56:13;;;;;;;;;;;;;;;23.46;53.95;99647.25;4415459;32;20043;-84
2022/06/26 00:58:40;;;;;;;;;;;;;;;23.43;54.05;99647.38;4415634;32;20001;-84
2022/06/26 01:01:07;;;;;;;;;;;;;;;23.47;53.81;99648.97;4414702;32;19988;-84
2022/06/26 01:03:34;;;;;;;;;;;;;;;23.44;53.89;99660.50;4416227;32;20550;-84
2022/06/26 01:06:03;;;;;;;;;;;;;;;23.47;53.71;99659.53;4415835;32;20002;-84
2022/06/26 01:08:29;;;;;;;;;;;;;;;23.51;53.86;99666.41;4415843;32;20061;-84
2022/06/26 01:10:57;;;;;;;;;;;;;;;23.46;54.00;99663.13;4421036;32;20041;-84
2022/06/26 01:13:23;;;;;;;;;;;;;;;23.26;54.96;99660.38;4414531;32;19990;-86
2022/06/26 01:15:51;;;;;;;;;;;;;;;23.30;54.78;99656.72;4416381;32;20009;-85
2022/06/26 01:18:19;;;;;;;;;;;;;;;23.27;54.63;99662.12;4417884;32;19990;-83
2022/06/26 01:20:54;;;;;;;;;;;;;;;23.30;54.52;99664.63;4407164;32;19966;-83
2022/06/26 01:23:22;;;;;;;;;;;;;;;23.37;54.10;99658.19;4414183;32;20032;-83
2022/06/26 01:25:49;;;;;;;;;;;;;;;23.43;53.94;99663.22;4421327;32;19986;-83
2022/06/26 01:28:16;;;;;;;;;;;;;;;23.36;54.04;99667.03;4419342;32;19974;-83
2022/06/26 01:30:44;;;;;;;;;;;;;;;23.38;54.17;99665.19;4426405;32;19977;-82
2022/06/26 01:33:11;;;;;;;;;;;;;;;23.23;54.34;99671.06;4420520;32;19993;-83
2022/06/26 01:35:38;;;;;;;;;;;;;;;23.24;54.01;99667.50;4429379;32;19981;-83
2022/06/26 01:38:08;;;;;;;;;;;;;;;23.28;54.00;99669.09;4421864;32;20031;-83
2022/06/26 01:40:35;;;;;;;;;;;;;;;23.07;54.54;99665.50;4429263;32;20381;-82
2022/06/26 01:43:02;;;;;;;;;;;;;;;23.18;53.95;99666.81;4436113;32;19977;-83
2022/06/26 01:45:29;;;;;;;;;;;;;;;22.98;54.53;99667.59;4435454;32;19988;-83
2022/06/26 01:47:56;;;;;;;;;;;;;;;22.67;55.70;99667.81;4420377;32;19998;-82
2022/06/26 01:50:23;;;;;;;;;;;;;;;22.67;55.61;99673.09;4420546;32;19977;-82
2022/06/26 01:52:51;;;;;;;;;;;;;;;22.85;54.93;99674.22;4427756;32;20027;-83
2022/06/26 01:55:17;;;;;;;;;;;;;;;22.95;54.39;99666.84;4421408;32;20316;-83
2022/06/26 01:57:47;;;;;;;;;;;;;;;23.04;54.12;99677.06;4420850;32;20315;-83
2022/06/26 02:00:15;;;;;;;;;;;;;;;23.00;54.26;99675.44;4419977;32;20352;-83
2022/06/26 02:02:44;;;;;;;;;;;;;;;22.86;54.93;99668.00;4420303;32;19998;-83
2022/06/26 02:05:11;;;;;;;;;;;;;;;22.99;54.41;99679.00;4421944;32;19978;-83
2022/06/26 02:07:38;;;;;;;;;;;;;;;22.92;54.57;99677.50;4427081;32;19990;-83
2022/06/26 02:15:38;;;;;;;;;;;;;;;22.80;54.89;99683.22;4426092;32;19978;-83
2022/06/26 02:18:04;;;;;;;;;;;;;;;22.82;54.87;99686.66;4422131;32;20048;-83
2022/06/26 02:20:31;;;;;;;;;;;;;;;22.81;55.01;99684.94;4413354;32;20383;-84
2022/06/26 02:22:59;;;;;;;;;;;;;;;22.83;54.87;99698.94;4427789;32;20008;-83
2022/06/26 02:25:26;;;;;;;;;;;;;;;22.97;54.50;99686.09;4418398;32;19986;-83
2022/06/26 02:27:53;;;;;;;;;;;;;;;22.69;55.75;99697.66;4428447;32;19973;-84
2022/06/26 02:30:21;;;;;;;;;;;;;;;22.79;55.27;99697.34;4411754;32;19977;-84
2022/06/26 02:32:48;;;;;;;;;;;;;;;22.87;55.15;99701.41;4422716;32;19989;-84
2022/06/26 02:35:16;;;;;;;;;;;;;;;22.87;55.07;99695.25;4428253;32;19982;-84
2022/06/26 02:37:42;;;;;;;;;;;;;;;22.88;55.40;99691.72;4419773;32;20013;-84
2022/06/26 02:40:09;;;;;;;;;;;;;;;22.78;55.42;99693.81;4417570;32;19978;-83
2022/06/26 02:42:36;;;;;;;;;;;;;;;22.82;55.27;99691.94;4415736;32;20008;-83
2022/06/26 02:45:04;;;;;;;;;;;;;;;22.90;55.12;99689.88;4417455;32;20792;-83
2022/06/26 02:47:31;;;;;;;;;;;;;;;22.96;54.83;99694.97;4421453;32;20408;-83
2022/06/26 02:49:58;;;;;;;;;;;;;;;22.86;55.16;99704.09;4417055;32;19982;-82
2022/06/26 02:52:25;;;;;;;;;;;;;;;22.79;55.38;99702.63;4416841;32;19974;-83
2022/06/26 02:54:52;;;;;;;;;;;;;;;22.68;55.70;99706.47;4417160;32;20000;-82
2022/06/26 02:57:19;;;;;;;;;;;;;;;22.86;54.98;99712.03;4416674;32;19981;-83
2022/06/26 02:59:46;;;;;;;;;;;;;;;22.93;54.72;99710.87;4416758;32;20308;-82
2022/06/26 03:02:13;;;;;;;;;;;;;;;22.89;54.84;99711.91;4416766;32;19973;-83
2022/06/26 03:04:40;;;;;;;;;;;;;;;22.82;54.96;99723.62;4418459;32;19994;-84
2022/06/26 03:07:08;;;;;;;;;;;;;;;22.69;55.50;99728.47;4423712;32;19985;-83
2022/06/26 03:09:35;;;;;;;;;;;;;;;22.66;55.71;99733.84;4416587;32;20029;-83
2022/06/26 03:12:02;;;;;;;;;;;;;;;22.64;55.90;99735.69;4418295;32;19970;-83
2022/06/26 03:14:30;;;;;;;;;;;;;;;22.58;56.23;99736.75;4423947;32;20001;-83
2022/06/26 03:16:58;;;;;;;;;;;;;;;22.65;56.10;99738.25;4420664;32;19986;-83
2022/06/26 03:19:25;;;;;;;;;;;;;;;22.75;55.75;99734.37;4417181;32;20011;-83
2022/06/26 03:21:52;;;;;;;;;;;;;;;22.84;55.50;99735.81;4415132;32;20033;-83
2022/06/26 03:24:19;;;;;;;;;;;;;;;22.90;55.31;99737.38;4425282;32;20000;-83
2022/06/26 03:26:46;;;;;;;;;;;;;;;22.73;55.99;99746.78;4416491;32;19978;-83
2022/06/26 03:29:13;;;;;;;;;;;;;;;22.88;55.51;99741.87;4418331;32;20331;-82
2022/06/26 03:31:40;;;;;;;;;;;;;;;22.93;55.39;99747.84;4423572;32;20454;-82
2022/06/26 03:34:08;;;;;;;;;;;;;;;22.88;55.47;99747.16;4417078;32;20001;-82
2022/06/26 03:36:35;;;;;;;;;;;;;;;22.50;56.97;99749.34;4416599;32;19970;-83
2022/06/26 03:39:02;;;;;;;;;;;;;;;22.69;56.29;99745.16;4418356;32;20001;-82
2022/06/26 03:41:30;;;;;;;;;;;;;;;22.67;56.54;99741.72;4423145;32;20476;-82
2022/06/26 03:43:57;;;;;;;;;;;;;;;22.80;56.32;99747.41;4436442;32;19981;-81
2022/06/26 03:46:24;;;;;;;;;;;;;;;22.81;56.51;99751.75;4446335;32;19988;-83
2022/06/26 03:48:51;;;;;;;;;;;;;;;22.81;56.37;99754.41;4446730;32;19981;-83
2022/06/26 03:51:18;;;;;;;;;;;;;;;22.81;56.60;99753.53;4446327;32;20538;-83
2022/06/26 03:53:45;;;;;;;;;;;;;;;22.90;56.38;99753.22;4447726;32;19993;-82
2022/06/26 03:56:12;;;;;;;;;;;;;;;22.68;57.48;99759.25;4446323;32;20013;-83
2022/06/26 03:58:40;;;;;;;;;;;;;;;22.75;57.23;99755.50;4424259;32;19992;-83
2022/06/26 04:01:07;;;;;;;;;;;;;;;22.89;56.61;99754.16;4431998;32;19985;-83
2022/06/26 04:03:34;;;;;;;;;;;;;;;22.94;56.47;99745.19;4405352;32;19985;-84
2022/06/26 04:06:01;;;;;;;;;;;;;;;22.90;56.88;99742.66;4433545;32;20615;-83
2022/06/26 04:08:33;;;;;;;;;;;;;;;22.85;57.10;99744.63;4431555;32;20000;-84
2022/06/26 04:11:00;;;;;;;;;;;;;;;22.89;57.22;99743.59;4406263;32;19978;-84
2022/06/26 04:13:27;;;;;;;;;;;;;;;22.87;57.47;99740.13;4431723;32;19993;-85
2022/06/26 04:15:54;;;;;;;;;;;;;;;22.98;57.18;99740.66;4431608;32;20039;-84
2022/06/26 04:18:21;;;;;;;;;;;;;;;23.14;56.48;99747.09;4436028;32;19983;-83
2022/06/26 04:20:48;;;;;;;;;;;;;;;23.23;56.44;99750.28;4440730;32;20322;-83
2022/06/26 04:23:15;;;;;;;;;;;;;;;23.32;56.44;99749.94;4445478;32;19992;-83
2022/06/26 04:25:42;;;;;;;;;;;;;;;23.30;56.68;99749.16;4438142;32;20052;-83
2022/06/26 04:28:09;;;;;;;;;;;;;;;23.41;56.36;99749.59;4435487;32;19981;-84
2022/06/26 04:30:38;;;;;;;;;;;;;;;23.44;56.48;99744.19;4441697;32;20646;-84
2022/06/26 04:33:05;;;;;;;;;;;;;;;23.44;56.74;99754.78;4434564;32;20395;-84
2022/06/26 04:35:32;;;;;;;;;;;;;;;23.52;56.75;99752.72;4440661;32;20330;-84
2022/06/26 04:38:00;;;;;;;;;;;;;;;23.51;56.63;99761.53;4441411;32;20003;-84
2022/06/26 04:40:28;;;;;;;;;;;;;;;23.71;55.92;99757.28;4436911;32;20345;-84
2022/06/26 04:42:55;;;;;;;;;;;;;;;23.58;56.58;99757.75;4430346;32;20019;-84
2022/06/26 04:45:22;;;;;;;;;;;;;;;23.71;56.51;99752.00;4432010;32;20038;-84
2022/06/26 04:47:52;;;;;;;;;;;;;;;23.87;56.07;99761.06;4431766;32;20734;-84
2022/06/26 04:50:21;;;;;;;;;;;;;;;23.87;56.00;99758.44;4433323;32;20044;-83
2022/06/26 04:52:49;;;;;;;;;;;;;;;23.95;56.01;99753.69;4438033;32;19993;-83
2022/06/26 04:55:16;;;;;;;;;;;;;;;23.88;56.19;99755.72;4431785;32;19986;-84
2022/06/26 04:57:44;;;;;;;;;;;;;;;23.96;56.05;99752.75;4439905;32;20080;-83
2022/06/26 05:00:12;;;;;;;;;;;;;;;24.02;56.02;99757.78;4431241;32;19985;-83
2022/06/26 05:02:39;;;;;;;;;;;;;;;24.11;55.83;99757.41;4431682;32;20366;-84
2022/06/26 05:05:13;;;;;;;;;;;;;;;24.19;55.21;99761.56;4434889;32;19982;-84
2022/06/26 05:07:41;;;;;;;;;;;;;;;24.18;55.42;99762.47;4431218;32;19985;-84
2022/06/26 05:10:08;;;;;;;;;;;;;;;24.17;55.70;99760.75;4431531;32;19996;-83
2022/06/26 05:12:38;;;;;;;;;;;;;;;24.17;55.99;99760.75;4429696;32;19989;-83
2022/06/26 05:15:06;;;;;;;;;;;;;;;24.07;56.41;99755.84;4439146;32;19981;-83
2022/06/26 05:17:33;;;;;;;;;;;;;;;24.11;56.44;99757.41;4423614;32;20031;-83
2022/06/26 05:20:00;;;;;;;;;;;;;;;23.97;57.18;99759.78;4427112;32;19982;-83
2022/06/26 05:22:27;;;;;;;;;;;;;;;24.40;55.22;99768.56;4431229;32;19989;-83
2022/06/26 05:24:54;;;;;;;;;;;;;;;24.42;55.27;99763.28;4431086;32;20767;-83
2022/06/26 05:27:21;;;;;;;;;;;;;;;24.50;55.03;99769.94;4430741;32;20019;-84
2022/06/26 05:29:50;;;;;;;;;;;;;;;24.63;54.90;99764.13;4433485;32;19974;-83
2022/06/26 05:32:17;;;;;;;;;;;;;;;24.67;54.41;99763.09;4440748;32;20303;-83
2022/06/26 05:34:44;;;;;;;;;;;;;;;24.49;55.40;99770.88;4435067;32;19982;-84
2022/06/26 05:37:12;;;;;;;;;;;;;;;24.63;54.90;99758.84;4430930;32;19969;-83
2022/06/26 05:39:40;;;;;;;;;;;;;;;24.76;54.20;99770.59;4441914;32;19985;-84
2022/06/26 05:42:06;;;;;;;;;;;;;;;24.81;54.67;99768.62;4439637;32;19977;-83
2022/06/26 05:44:37;;;;;;;;;;;;;;;24.72;55.10;99769.03;4431274;32;20000;-82
2022/06/26 05:47:04;;;;;;;;;;;;;;;24.86;54.69;99765.81;4445288;32;20034;-82
2022/06/26 05:49:38;;;;;;;;;;;;;;;25.06;53.23;99758.66;4439799;32;20046;-82
2022/06/26 05:52:05;;;;;;;;;;;;;;;25.11;53.03;99760.25;4440374;32;19981;-82
2022/06/26 05:54:32;;;;;;;;;;;;;;;24.94;54.41;99767.16;4443498;32;20039;-82
2022/06/26 05:57:00;;;;;;;;;;;;;;;25.00;54.28;99764.25;4430108;32;19988;-83
2022/06/26 05:59:31;;;;;;;;;;;;;;;24.95;54.76;99766.25;4421372;32;20001;-82
2022/06/26 06:01:58;;;;;;;;;;;;;;;25.25;53.50;99768.47;4426754;32;20038;-82
2022/06/26 06:04:26;;;;;;;;;;;;;;;25.40;51.97;99773.09;4432254;32;20333;-83
2022/06/26 06:06:55;;;;;;;;;;;;;;;25.36;52.15;99765.31;4437839;32;19977;-83
2022/06/26 06:09:22;;;;;;;;;;;;;;;25.41;52.64;99772.13;4431695;32;20036;-84
2022/06/26 06:11:52;;;;;;;;;;;;;;;25.36;52.97;99771.47;4429642;32;19988;-83
2022/06/26 06:14:19;;;;;;;;;;;;;;;25.61;51.26;99770.34;4430646;32;20367;-83
2022/06/26 06:16:46;;;;;;;;;;;;;;;25.72;51.40;99765.41;4432587;32;20318;-84
2022/06/26 06:19:13;;;;;;;;;;;;;;;25.96;51.89;99771.34;4433295;32;20322;-84
2022/06/26 06:21:40;;;;;;;;;;;;;;;26.10;51.00;99778.63;4439264;32;20833;-85
2022/06/26 06:24:07;;;;;;;;;;;;;;;26.54;50.07;99767.63;4431525;32;20016;-86
2022/06/26 06:26:35;;;;;;;;;;;;;;;26.99;48.53;99774.16;4432212;32;20082;-83
2022/06/26 06:29:03;;;;;;;;;;;;;;;27.25;48.60;99780.75;4407213;32;20044;-87
2022/06/26 06:31:31;;;;;;;;;;;;;;;27.50;46.68;99785.59;4431393;32;20119;-86
2022/06/26 06:34:00;;;;;;;;;;;;;;;27.97;45.69;99780.31;4440527;32;20025;-85
2022/06/26 06:36:27;;;;;;;;;;;;;;;28.39;45.22;99781.44;4433563;32;20036;-84
2022/06/26 06:38:55;;;;;;;;;;;;;;;28.42;43.67;99791.09;4440111;32;20327;-86
2022/06/26 06:41:22;;;;;;;;;;;;;;;28.61;42.41;99781.09;4434087;32;20394;-87
2022/06/26 06:43:50;;;;;;;;;;;;;;;28.69;43.58;99792.16;4431238;32;20315;-83
2022/06/26 06:46:20;;;;;;;;;;;;;;;28.92;43.71;99789.91;4439671;32;20566;-83
2022/06/26 06:48:48;;;;;;;;;;;;;;;29.15;42.32;99791.19;4433866;32;20386;-86
2022/06/26 06:51:17;;;;;;;;;;;;;;;29.29;41.76;99798.31;4436867;32;20031;-85
2022/06/26 06:53:44;;;;;;;;;;;;;;;29.45;42.41;99804.41;4405761;32;20011;-84
2022/06/26 06:56:11;;;;;;;;;;;;;;;29.65;41.65;99803.22;4431978;32;20284;-85
2022/06/26 06:58:38;;;;;;;;;;;;;;;29.65;42.07;99809.41;4421940;32;20000;-83
2022/06/26 07:01:05;;;;;;;;;;;;;;;29.73;41.44;99803.56;4429580;32;20028;-83
2022/06/26 07:03:33;;;;;;;;;;;;;;;29.79;40.88;99810.31;4439895;32;20052;-83
2022/06/26 07:05:59;;;;;;;;;;;;;;;30.17;38.60;99804.31;4432188;32;19977;-88
2022/06/26 07:08:27;;;;;;;;;;;;;;;29.71;40.74;99809.94;4422976;32;20004;-82
2022/06/26 07:10:55;;;;;;;;;;;;;;;30.22;38.60;99810.25;4432075;32;19993;-83
2022/06/26 07:13:22;;;;;;;;;;;;;;;30.45;38.29;99808.72;4439073;32;19981;-82
2022/06/26 07:15:49;;;;;;;;;;;;;;;30.38;38.74;99802.94;4430918;32;19969;-85
2022/06/26 07:18:16;;;;;;;;;;;;;;;30.39;39.83;99791.28;4431943;32;19978;-84
2022/06/26 07:20:43;;;;;;;;;;;;;;;30.44;39.16;99799.84;4432292;32;19978;-82
2022/06/26 07:23:10;;;;;;;;;;;;;;;30.78;36.84;99795.75;4418247;32;20001;-83
2022/06/26 07:25:37;;;;;;;;;;;;;;;31.18;37.11;99805.53;4437986;32;19984;-85
2022/06/26 07:28:04;;;;;;;;;;;;;;;31.38;36.90;99796.97;4433998;32;20001;-85
2022/06/26 07:30:34;;;;;;;;;;;;;;;31.03;38.37;99802.94;4437324;32;19981;-86
2022/06/26 07:33:02;;;;;;;;;;;;;;;31.42;35.62;99794.94;4442150;32;19977;-84
2022/06/26 07:35:30;;;;;;;;;;;;;;;31.24;38.46;99797.06;4432471;32;20054;-83
2022/06/26 07:37:57;;;;;;;;;;;;;;;30.51;37.94;99801.16;4439550;32;19993;-83
2022/06/26 07:40:24;;;;;;;;;;;;;;;30.79;37.25;99788.59;4431549;32;20130;-82
2022/06/26 07:42:52;;;;;;;;;;;;;;;31.17;37.97;99793.09;4433959;32;19997;-82
2022/06/26 07:45:19;;;;;;;;;;;;;;;31.64;34.60;99791.56;4423447;32;19969;-83
2022/06/26 07:47:46;;;;;;;;;;;;;;;31.49;37.17;99794.41;4441095;32;19977;-83
2022/06/26 07:50:13;;;;;;;;;;;;;;;31.91;34.67;99792.28;4431956;32;19986;-81
2022/06/26 07:52:40;;;;;;;;;;;;;;;31.95;34.55;99791.06;4432032;32;20013;-83
2022/06/26 07:55:07;;;;;;;;;;;;;;;32.10;34.20;99793.56;4439033;32;20417;-83
2022/06/26 07:57:34;;;;;;;;;;;;;;;31.79;34.68;99787.78;4430387;32;20000;-82
2022/06/26 08:00:05;;;;;;;;;;;;;;;32.22;32.33;99781.94;4419987;32;19989;-83
2022/06/26 08:02:39;;;;;;;;;;;;;;;32.06;34.04;99794.78;4420136;32;19990;-82
2022/06/26 08:05:06;;;;;;;;;;;;;;;32.24;34.37;99790.75;4418344;32;19989;-83
2022/06/26 08:07:33;;;;;;;;;;;;;;;32.58;32.18;99788.19;4431786;32;19986;-82
2022/06/26 08:10:00;;;;;;;;;;;;;;;32.36;35.40;99795.19;4440389;32;19985;-84
2022/06/26 08:12:27;;;;;;;;;;;;;;;32.44;33.65;99801.81;4432008;32;19995;-81
2022/06/26 08:14:54;;;;;;;;;;;;;;;32.64;32.44;99798.47;4439867;32;20029;-83
2022/06/26 08:17:21;;;;;;;;;;;;;;;32.94;32.30;99797.94;4438731;32;20278;-84
2022/06/26 08:19:48;;;;;;;;;;;;;;;32.28;31.52;99797.56;4431348;32;20324;-84
2022/06/26 08:22:17;;;;;;;;;;;;;;;32.75;31.42;99801.19;4431466;32;19985;-84
2022/06/26 08:24:44;;;;;;;;;;;;;;;33.11;30.82;99802.00;4431662;32;20057;-85
2022/06/26 08:27:11;;;;;;;;;;;;;;;33.05;31.07;99791.75;4430993;32;20270;-86
2022/06/26 08:29:38;;;;;;;;;;;;;;;33.19;30.24;99796.06;4419579;32;20041;-86
2022/06/26 08:32:05;;;;;;;;;;;;;;;33.36;31.27;99794.72;4439023;32;19993;-86
2022/06/26 08:34:32;;;;;;;;;;;;;;;33.67;30.39;99794.00;4422568;32;20020;-84
2022/06/26 08:36:59;;;;;;;;;;;;;;;33.84;29.00;99799.81;4403447;32;20001;-84
2022/06/26 08:39:26;;;;;;;;;;;;;;;33.57;30.02;99806.44;4406237;32;20034;-85
2022/06/26 08:41:53;;;;;;;;;;;;;;;33.37;29.81;99801.78;4406632;32;19974;-84
2022/06/26 08:44:21;;;;;;;;;;;;;;;33.32;30.77;99803.00;4402564;32;20024;-85
2022/06/26 08:46:47;;;;;;;;;;;;;;;33.61;30.56;99805.22;4380977;32;20006;-84
2022/06/26 08:49:16;;;;;;;;;;;;;;;33.74;29.13;99800.56;4425594;32;20414;-85
2022/06/26 08:51:44;;;;;;;;;;;;;;;33.93;27.67;99801.75;4407220;32;20052;-84
2022/06/26 08:54:14;;;;;;;;;;;;;;;33.76;28.15;99797.72;4420624;32;20020;-86
2022/06/26 08:56:42;;;;;;;;;;;;;;;33.73;33.24;99798.00;4431362;32;19985;-85
2022/06/26 08:59:09;;;;;;;;;;;;;;;33.53;30.70;99796.91;4440073;32;20044;-85
2022/06/26 09:01:36;;;;;;;;;;;;;;;33.84;28.86;99805.19;4431586;32;19997;-85
2022/06/26 09:04:05;;;;;;;;;;;;;;;33.81;29.33;99800.91;4439678;32;19990;-83
2022/06/26 09:06:32;;;;;;;;;;;;;;;33.59;31.20;99796.44;4433769;32;20049;-81
2022/06/26 09:09:12;;;;;;;;;;;;;;;33.63;26.96;99797.88;4417521;32;20001;-86
2022/06/26 09:11:39;;;;;;;;;;;;;;;33.61;28.84;99799.84;4416675;32;19981;-84
2022/06/26 09:14:06;;;;;;;;;;;;;;;33.93;27.68;99789.16;4431267;32;20040;-85
2022/06/26 09:16:33;;;;;;;;;;;;;;;33.94;27.93;99795.37;4430971;32;19987;-85
2022/06/26 09:19:07;;;;;;;;;;;;;;;34.48;26.58;99795.34;4430929;32;19973;-82
2022/06/26 09:21:34;;;;;;;;;;;;;;;34.03;27.89;99800.88;4416845;32;20335;-83
2022/06/26 09:24:02;;;;;;;;;;;;;;;33.75;28.58;99791.50;4436898;32;20018;-87
2022/06/26 09:26:28;;;;;;;;;;;;;;;33.67;30.46;99799.34;4431646;32;20382;-88
2022/06/26 09:28:55;;;;;;;;;;;;;;;33.90;29.12;99799.31;4427257;32;20040;-86
2022/06/26 09:31:22;;;;;;;;;;;;;;;34.02;30.21;99796.50;4430360;32;20689;-82
2022/06/26 09:33:49;;;;;;;;;;;;;;;33.98;29.10;99796.84;4434316;32;20008;-86
2022/06/26 09:36:17;;;;;;;;;;;;;;;34.01;29.30;99791.22;4420258;32;20001;-85
2022/06/26 09:38:48;;;;;;;;;;;;;;;34.07;28.04;99796.13;4430669;32;19982;-86
2022/06/26 09:41:15;;;;;;;;;;;;;;;34.60;27.34;99788.13;4430572;32;20097;-84
2022/06/26 09:43:42;;;;;;;;;;;;;;;34.51;28.50;99783.47;4431213;32;20029;-86
2022/06/26 09:46:10;;;;;;;;;;;;;;;34.39;28.45;99789.88;4432636;32;19974;-83
2022/06/26 09:48:37;;;;;;;;;;;;;;;34.49;28.32;99789.00;4437938;32;20330;-83
2022/06/26 09:51:05;;;;;;;;;;;;;;;34.92;27.73;99781.81;4432533;32;20029;-85
2022/06/26 09:53:33;;;;;;;;;;;;;;;34.77;27.42;99785.81;4432526;32;20015;-86
2022/06/26 09:56:00;;;;;;;;;;;;;;;34.37;29.32;99789.19;4434898;32;20048;-83
2022/06/26 09:58:27;;;;;;;;;;;;;;;34.81;29.03;99779.19;3817687;32;10000905;-85
2022/06/26 10:06:31;;;;;;;;;;;;;;;35.35;25.82;99783.44;4432449;32;20002;-83
2022/06/26 10:09:07;;;;;;;;;;;;;;;35.36;25.97;99786.03;4432220;32;19981;-83
2022/06/26 10:11:38;;;;;;;;;;;;;;;35.29;26.50;99778.59;4434240;32;20032;-84
2022/06/26 10:14:08;;;;;;;;;;;;;;;35.65;25.12;99779.06;4428388;32;20912;-84
2022/06/26 10:16:35;;;;;;;;;;;;;;;35.59;27.99;99775.94;4420631;32;19978;-83
2022/06/26 10:19:02;;;;;;;;;;;;;;;35.33;28.06;99774.69;4432110;32;20019;-85
2022/06/26 10:21:34;;;;;;;;;;;;;;;35.48;25.84;99777.81;4432719;32;19978;-86
2022/06/26 10:24:02;;;;;;;;;;;;;;;35.85;25.65;99780.81;4418975;32;19981;-84
2022/06/26 10:26:29;;;;;;;;;;;;;;;35.29;26.99;99773.22;4429471;32;19982;-84
2022/06/26 10:29:03;;;;;;;;;;;;;;;35.73;25.14;99771.97;4443978;32;19981;-84
2022/06/26 10:31:31;;;;;;;;;;;;;;;35.62;26.72;99769.41;4423455;32;20000;-83
2022/06/26 10:34:13;;;;;;;;;;;;;;;34.91;28.94;99763.97;4436999;32;20030;-83
2022/06/26 10:36:40;;;;;;;;;;;;;;;34.64;29.02;99757.28;4432698;32;19986;-84
2022/06/26 10:39:07;;;;;;;;;;;;;;;34.49;29.07;99769.31;4445746;32;19984;-85
2022/06/26 10:44:43;;;;;;;;;;;;;;;35.15;26.54;99772.59;4418553;32;19989;-86
2022/06/26 10:47:13;;;;;;;;;;;;;;;34.94;26.96;99769.06;4417370;32;19989;-83
2022/06/26 10:49:47;;;;;;;;;;;;;;;34.74;26.17;99767.25;4424455;32;20034;-87
2022/06/26 10:52:24;;;;;;;;;;;;;;;34.13;29.97;99766.06;4416865;32;19978;-85
2022/06/26 10:54:52;;;;;;;;;;;;;;;34.30;27.66;99775.38;4423902;32;20001;-89
2022/06/26 10:57:20;;;;;;;;;;;;;;;33.97;30.57;99768.28;4422741;32;20000;-91
2022/06/26 10:59:47;;;;;;;;;;;;;;;33.90;28.99;99767.09;4417842;32;19986;-90
2022/06/26 11:02:15;;;;;;;;;;;;;;;34.24;29.78;99766.03;4421476;32;19998;-87
2022/06/26 11:04:46;;;;;;;;;;;;;;;34.58;29.14;99765.88;4432395;32;20049;-87
2022/06/26 11:07:13;;;;;;;;;;;;;;;34.58;28.42;99765.88;4432207;32;20036;-84
2022/06/26 11:09:41;;;;;;;;;;;;;;;34.21;28.63;99776.19;4408006;32;20103;-86
2022/06/26 11:12:07;;;;;;;;;;;;;;;34.35;29.05;99767.78;4405917;32;19996;-83
2022/06/26 11:14:34;;;;;;;;;;;;;;;34.31;27.89;99765.50;4424485;32;19985;-84
2022/06/26 11:17:01;;;;;;;;;;;;;;;33.96;28.89;99766.59;4417342;32;20377;-83
2022/06/26 11:19:29;;;;;;;;;;;;;;;32.70;30.11;99767.66;4419373;32;19977;-84
2022/06/26 11:22:09;;;;;;;;;;;;;;;32.57;30.56;99767.75;4432162;32;20021;-84
2022/06/26 11:24:46;;;;;;;;;;;;;;;33.06;29.93;99766.66;4418253;32;20034;-83
2022/06/26 11:27:24;;;;;;;;;;;;;;;33.58;28.64;99757.16;4435365;32;19999;-83
2022/06/26 11:29:52;;;;;;;;;;;;;;;34.06;29.10;99755.97;4429022;32;19977;-83
2022/06/26 11:32:22;;;;;;;;;;;;;;;34.30;28.20;99761.94;4433006;32;19977;-82
2022/06/26 11:34:52;;;;;;;;;;;;;;;34.04;27.31;99758.75;4409554;32;20282;-82
2022/06/26 11:37:32;;;;;;;;;;;;;;;34.14;28.24;99765.09;4432095;32;20387;-82
2022/06/26 11:40:00;;;;;;;;;;;;;;;34.59;27.12;99754.16;4418156;32;19977;-82
2022/06/26 11:42:27;;;;;;;;;;;;;;;34.87;28.03;99751.75;4440450;32;19980;-82
2022/06/26 11:44:54;;;;;;;;;;;;;;;34.61;25.95;99752.16;4415701;32;20389;-83
2022/06/26 11:47:21;;;;;;;;;;;;;;;34.70;28.00;99745.16;4407480;32;20493;-83
2022/06/26 11:49:48;;;;;;;;;;;;;;;34.84;27.43;99746.62;4430972;32;19981;-83
2022/06/26 11:52:16;;;;;;;;;;;;;;;34.86;26.78;99750.06;4437058;32;20017;-82
2022/06/26 11:54:43;;;;;;;;;;;;;;;35.05;24.83;99744.81;4429438;32;20007;-90
2022/06/26 11:57:10;;;;;;;;;;;;;;;34.64;25.18;99746.53;4425960;32;19981;-84
2022/06/26 11:59:43;;;;;;;;;;;;;;;35.13;24.03;99741.44;4434790;32;19981;-84
2022/06/26 12:02:20;;;;;;;;;;;;;;;35.15;24.77;99740.31;4443598;32;19995;-85
2022/06/26 12:04:57;;;;;;;;;;;;;;;35.05;25.52;99734.03;4442462;32;19991;-87
2022/06/26 12:07:24;;;;;;;;;;;;;;;34.43;27.25;99732.19;4428082;32;20384;-85
2022/06/26 12:09:51;;;;;;;;;;;;;;;34.34;26.53;99739.22;4442501;32;19991;-87
2022/06/26 12:12:18;;;;;;;;;;;;;;;34.64;25.60;99735.78;4428541;32;19990;-85
2022/06/26 12:14:51;;;;;;;;;;;;;;;34.03;27.23;99736.41;4431789;32;20072;-84
2022/06/26 12:17:22;;;;;;;;;;;;;;;33.16;28.29;99735.44;4431811;32;19985;-85
2022/06/26 12:19:49;;;;;;;;;;;;;;;33.27;30.06;99732.75;4428337;32;20031;-89
2022/06/26 12:22:28;;;;;;;;;;;;;;;34.08;27.83;99733.38;4445622;32;20003;-85
2022/06/26 12:24:56;;;;;;;;;;;;;;;34.31;27.84;99733.25;4444043;32;20023;-88
2022/06/26 12:27:42;;;;;;;;;;;;;;;34.10;28.05;99731.38;4437302;32;20382;-89
2022/06/26 12:30:16;;;;;;;;;;;;;;;34.71;25.60;99726.19;4435426;32;20022;-89
2022/06/26 12:32:59;;;;;;;;;;;;;;;34.62;27.29;99726.13;4437339;32;20305;-90
2022/06/26 12:35:26;;;;;;;;;;;;;;;34.30;25.39;99720.78;4446166;32;20032;-90
2022/06/26 12:37:54;;;;;;;;;;;;;;;34.78;24.85;99714.88;4445735;32;20020;-86
2022/06/26 12:40:20;;;;;;;;;;;;;;;35.05;26.28;99728.66;4439482;32;19985;-93
2022/06/26 12:42:48;;;;;;;;;;;;;;;35.49;24.92;99731.94;4435222;32;19978;-88
2022/06/26 12:45:15;;;;;;;;;;;;;;;35.08;26.79;99728.41;4444466;32;20000;-87
2022/06/26 12:47:41;;;;;;;;;;;;;;;35.40;26.34;99719.28;4418743;32;20310;-89
2022/06/26 12:50:09;;;;;;;;;;;;;;;35.45;24.97;99719.75;4429624;32;20079;-86
2022/06/26 12:52:36;;;;;;;;;;;;;;;35.09;24.51;99722.00;4430547;32;20004;-90
2022/06/26 12:55:03;;;;;;;;;;;;;;;35.35;24.53;99726.91;4423765;32;20005;-86
2022/06/26 12:57:30;;;;;;;;;;;;;;;35.07;25.18;99721.31;4438520;32;19973;-94
2022/06/26 12:59:57;;;;;;;;;;;;;;;35.05;24.26;99723.28;4435147;32;20015;-88
2022/06/26 13:02:24;;;;;;;;;;;;;;;34.95;24.92;99723.19;4444738;32;19995;-88
2022/06/26 13:04:54;;;;;;;;;;;;;;;34.38;24.73;99716.47;4445428;32;19990;-90